createdAt,value
2017-01-23T00:00:10.843Z,36.01
2017-01-23T00:01:19.941Z,35.63
2017-01-23T00:02:28.660Z,35.72
2017-01-23T00:03:37.365Z,35.82
2017-01-23T00:04:46.832Z,36.11
2017-01-23T00:05:56.317Z,36.01
2017-01-23T00:07:05.423Z,36.01
2017-01-23T00:08:14.112Z,36.11
2017-01-23T00:09:23.579Z,36.2
2017-01-23T00:10:32.275Z,36.01
2017-01-23T00:11:40.964Z,36.2
2017-01-23T00:12:50.025Z,36.2
2017-01-23T00:13:59.123Z,36.2
2017-01-23T00:15:08.617Z,36.2
2017-01-23T00:16:17.299Z,36.11
2017-01-23T00:17:25.976Z,36.11
2017-01-23T00:18:34.660Z,36.2
2017-01-23T00:19:44.511Z,36.11
2017-01-23T00:20:53.198Z,36.3
2017-01-23T00:22:01.881Z,36.2
2017-01-23T00:23:11.355Z,36.2
2017-01-23T00:24:20.440Z,36.2
2017-01-23T00:25:29.528Z,36.2
2017-01-23T00:26:38.247Z,36.4
2017-01-23T00:27:47.329Z,36.3
2017-01-23T00:28:56.428Z,36.3
2017-01-23T00:30:05.901Z,36.49
2017-01-23T00:31:16.165Z,36.3
2017-01-23T00:32:25.254Z,36.49
2017-01-23T00:33:34.372Z,36.58
2017-01-23T00:34:43.491Z,36.58
2017-01-23T00:35:52.575Z,36.58
2017-01-23T00:37:02.451Z,36.58
2017-01-23T00:38:12.688Z,36.49
2017-01-23T00:39:22.172Z,36.49
2017-01-23T00:40:31.643Z,36.68
2017-01-23T00:41:40.726Z,36.68
2017-01-23T00:42:49.795Z,36.49
2017-01-23T00:43:58.900Z,36.49
2017-01-23T00:45:07.593Z,36.68
2017-01-23T00:46:16.749Z,36.49
2017-01-23T00:47:25.828Z,36.4
2017-01-23T00:48:34.505Z,36.3
2017-01-23T00:49:43.591Z,36.49
2017-01-23T00:50:52.309Z,36.58
2017-01-23T00:52:01.781Z,36.58
2017-01-23T00:53:11.249Z,36.4
2017-01-23T00:54:19.960Z,36.68
2017-01-23T00:55:29.041Z,36.68
2017-01-23T00:56:37.715Z,36.88
2017-01-23T00:57:46.796Z,36.58
2017-01-23T00:58:55.900Z,36.58
2017-01-23T01:00:04.589Z,36.88
2017-01-23T01:01:13.666Z,36.88
2017-01-23T01:02:22.739Z,36.88
2017-01-23T01:03:32.194Z,36.78
2017-01-23T01:04:41.280Z,36.88
2017-01-23T01:05:50.365Z,36.78
2017-01-23T01:06:59.870Z,36.88
2017-01-23T01:08:08.966Z,36.88
2017-01-23T01:09:18.043Z,36.78
2017-01-23T01:10:27.506Z,36.88
2017-01-23T01:11:36.195Z,36.78
2017-01-23T01:12:44.904Z,36.78
2017-01-23T01:13:53.989Z,36.88
2017-01-23T01:15:03.098Z,36.78
2017-01-23T01:16:12.585Z,37.07
2017-01-23T01:17:21.267Z,36.97
2017-01-23T01:18:29.959Z,36.95
2017-01-23T01:19:38.726Z,37.16
2017-01-23T01:20:48.584Z,37.16
2017-01-23T01:21:57.294Z,36.97
2017-01-23T01:23:06.763Z,36.86
2017-01-23T01:24:15.845Z,36.88
2017-01-23T01:25:25.703Z,37.07
2017-01-23T01:26:34.780Z,36.88
2017-01-23T01:27:44.252Z,36.68
2017-01-23T01:28:53.349Z,36.97
2017-01-23T01:30:02.432Z,37.16
2017-01-23T01:31:11.176Z,36.88
2017-01-23T01:32:20.645Z,36.97
2017-01-23T01:33:30.134Z,36.86
2017-01-23T01:34:38.815Z,37.05
2017-01-23T01:35:47.880Z,37.07
2017-01-23T01:36:56.968Z,37.07
2017-01-23T01:38:06.074Z,37.15
2017-01-23T01:39:15.138Z,37.07
2017-01-23T01:40:24.611Z,36.95
2017-01-23T01:41:33.698Z,37.05
2017-01-23T01:42:42.826Z,37.05
2017-01-23T01:43:51.893Z,37.07
2017-01-23T01:45:01.389Z,37.05
2017-01-23T01:46:10.076Z,36.97
2017-01-23T01:47:19.148Z,37.05
2017-01-23T01:48:27.850Z,37.24
2017-01-23T01:49:37.719Z,37.16
2017-01-23T01:50:46.422Z,37.05
2017-01-23T01:51:55.913Z,37.15
2017-01-23T01:53:05.386Z,37.15
2017-01-23T01:54:14.472Z,37.15
2017-01-23T01:55:23.551Z,37.16
2017-01-23T01:56:33.404Z,37.15
2017-01-23T01:57:42.480Z,37.15
2017-01-23T01:58:51.551Z,37.34
2017-01-23T02:00:00.239Z,37.34
2017-01-23T02:01:09.430Z,37.43
2017-01-23T02:02:19.287Z,37.43
2017-01-23T02:03:27.969Z,37.34
2017-01-23T02:04:37.047Z,37.34
2017-01-23T02:05:45.764Z,37.34
2017-01-23T02:06:55.227Z,37.34
2017-01-23T02:08:04.325Z,37.53
2017-01-23T02:09:13.007Z,37.34
2017-01-23T02:10:21.694Z,37.43
2017-01-23T02:11:31.173Z,37.43
2017-01-23T02:12:40.256Z,37.62
2017-01-23T02:13:49.793Z,37.43
2017-01-23T02:14:58.882Z,37.43
2017-01-23T02:16:07.586Z,37.62
2017-01-23T02:17:16.668Z,37.34
2017-01-23T02:18:25.350Z,37.34
2017-01-23T02:19:34.044Z,37.43
2017-01-23T02:20:43.129Z,37.24
2017-01-23T02:21:52.357Z,37.62
2017-01-23T02:23:01.436Z,37.53
2017-01-23T02:24:10.907Z,37.62
2017-01-23T02:25:20.004Z,37.53
2017-01-23T02:26:28.692Z,37.62
2017-01-23T02:27:37.397Z,37.72
2017-01-23T02:28:46.512Z,37.72
2017-01-23T02:29:55.215Z,37.72
2017-01-23T02:31:03.897Z,37.62
2017-01-23T02:32:12.981Z,37.43
2017-01-23T02:33:21.686Z,37.82
2017-01-23T02:34:30.407Z,37.62
2017-01-23T02:35:39.508Z,37.53
2017-01-23T02:36:48.987Z,37.62
2017-01-23T02:37:58.072Z,37.53
2017-01-23T02:39:06.796Z,37.82
2017-01-23T02:40:16.660Z,37.53
2017-01-23T02:41:26.128Z,37.53
2017-01-23T02:42:35.209Z,37.62
2017-01-23T02:43:44.289Z,37.53
2017-01-23T02:44:53.659Z,37.53
2017-01-23T02:46:02.751Z,37.53
2017-01-23T02:47:12.231Z,37.43
2017-01-23T02:48:20.926Z,37.43
2017-01-23T02:49:31.174Z,37.43
2017-01-23T02:50:40.672Z,37.72
2017-01-23T02:51:49.762Z,37.72
2017-01-23T02:52:59.236Z,37.72
2017-01-23T02:54:07.965Z,37.62
2017-01-23T02:55:16.694Z,37.72
2017-01-23T02:56:25.401Z,37.82
2017-01-23T02:57:34.107Z,37.43
2017-01-23T02:58:42.787Z,37.72
2017-01-23T02:59:51.920Z,37.62
2017-01-23T03:01:01.395Z,37.53
2017-01-23T03:02:10.492Z,37.72
2017-01-23T03:03:19.587Z,37.72
2017-01-23T03:04:28.671Z,37.53
2017-01-23T03:05:38.446Z,37.82
2017-01-23T03:06:47.554Z,37.53
2017-01-23T03:07:57.052Z,37.53
2017-01-23T03:09:06.956Z,37.43
2017-01-23T03:10:16.421Z,37.53
2017-01-23T03:11:25.122Z,37.43
2017-01-23T03:12:34.221Z,37.43
2017-01-23T03:13:42.915Z,37.62
2017-01-23T03:14:52.392Z,37.62
2017-01-23T03:16:01.097Z,37.62
2017-01-23T03:17:10.199Z,37.43
2017-01-23T03:18:19.267Z,37.53
2017-01-23T03:19:28.770Z,37.53
2017-01-23T03:20:37.482Z,37.62
2017-01-23T03:21:46.944Z,37.53
2017-01-23T03:22:56.021Z,37.43
2017-01-23T03:24:04.729Z,37.53
2017-01-23T03:25:14.372Z,37.62
2017-01-23T03:26:23.054Z,37.62
2017-01-23T03:27:31.737Z,37.82
2017-01-23T03:28:40.423Z,37.82
2017-01-23T03:29:50.304Z,37.82
2017-01-23T03:30:59.778Z,37.72
2017-01-23T03:32:08.475Z,37.62
2017-01-23T03:33:17.571Z,37.62
2017-01-23T03:34:27.037Z,37.72
2017-01-23T03:35:35.731Z,37.62
2017-01-23T03:36:44.431Z,37.72
2017-01-23T03:37:53.895Z,37.72
2017-01-23T03:39:02.992Z,37.82
2017-01-23T03:40:12.456Z,37.82
2017-01-23T03:41:21.527Z,37.91
2017-01-23T03:42:30.226Z,37.82
2017-01-23T03:43:39.696Z,37.82
2017-01-23T03:44:48.797Z,37.91
2017-01-23T03:45:57.870Z,37.82
2017-01-23T03:47:06.951Z,38.01
2017-01-23T03:48:16.023Z,37.72
2017-01-23T03:49:25.500Z,37.91
2017-01-23T03:50:34.188Z,37.82
2017-01-23T03:51:43.693Z,37.91
2017-01-23T03:52:52.404Z,37.91
2017-01-23T03:54:01.799Z,37.91
2017-01-23T03:55:10.880Z,37.82
2017-01-23T03:56:19.586Z,37.91
2017-01-23T03:57:28.676Z,37.91
2017-01-23T03:58:38.177Z,37.82
2017-01-23T03:59:47.282Z,37.91
2017-01-23T04:00:56.379Z,37.91
2017-01-23T04:02:05.490Z,37.91
2017-01-23T04:03:14.174Z,38.1
2017-01-23T04:04:23.278Z,38.01
2017-01-23T04:05:32.757Z,37.91
2017-01-23T04:06:41.846Z,38.01
2017-01-23T04:07:51.303Z,38.01
2017-01-23T04:09:01.597Z,38.01
2017-01-23T04:10:10.313Z,38.1
2017-01-23T04:11:20.205Z,37.91
2017-01-23T04:12:29.287Z,38.2
2017-01-23T04:13:38.382Z,38.2
2017-01-23T04:14:47.847Z,38.1
2017-01-23T04:15:58.099Z,38.29
2017-01-23T04:17:07.566Z,38.39
2017-01-23T04:18:17.029Z,38.29
2017-01-23T04:19:26.096Z,38.28
2017-01-23T04:20:34.798Z,38.2
2017-01-23T04:21:43.906Z,38.2
2017-01-23T04:22:53.388Z,38.39
2017-01-23T04:24:02.499Z,38.2
2017-01-23T04:25:11.590Z,38.2
2017-01-23T04:26:20.269Z,38.39
2017-01-23T04:27:30.414Z,38.29
2017-01-23T04:28:39.895Z,38.2
2017-01-23T04:29:48.966Z,38.39
2017-01-23T04:30:57.680Z,38.2
2017-01-23T04:32:07.179Z,38.49
2017-01-23T04:33:16.641Z,38.2
2017-01-23T04:34:26.124Z,38.39
2017-01-23T04:35:34.841Z,38.49
2017-01-23T04:36:43.920Z,38.39
2017-01-23T04:37:53.005Z,38.39
2017-01-23T04:39:02.494Z,38.29
2017-01-23T04:40:11.596Z,38.39
2017-01-23T04:41:20.303Z,38.39
2017-01-23T04:42:29.389Z,38.39
2017-01-23T04:43:38.477Z,38.39
2017-01-23T04:44:47.550Z,38.39
2017-01-23T04:45:56.631Z,38.49
2017-01-23T04:47:05.702Z,38.49
2017-01-23T04:48:14.789Z,38.39
2017-01-23T04:49:23.873Z,38.29
2017-01-23T04:50:32.943Z,38.2
2017-01-23T04:51:42.019Z,38.1
2017-01-23T04:52:51.521Z,38.39
2017-01-23T04:54:00.601Z,38.2
2017-01-23T04:55:09.285Z,38.2
2017-01-23T04:56:18.795Z,38.2
2017-01-23T04:57:28.255Z,38.49
2017-01-23T04:58:37.729Z,38.2
2017-01-23T04:59:46.408Z,38.2
2017-01-23T05:00:55.872Z,38.29
2017-01-23T05:02:04.943Z,38.1
2017-01-23T05:03:14.451Z,38.2
2017-01-23T05:04:23.164Z,38.2
2017-01-23T05:05:31.875Z,37.99
2017-01-23T05:06:40.944Z,38.2
2017-01-23T05:07:50.065Z,38.29
2017-01-23T05:08:59.551Z,38.29
2017-01-23T05:10:09.409Z,38.28
2017-01-23T05:11:18.111Z,38.39
2017-01-23T05:12:26.794Z,38.2
2017-01-23T05:13:35.873Z,38.1
2017-01-23T05:14:46.120Z,38.2
2017-01-23T05:15:55.200Z,38.1
2017-01-23T05:17:03.919Z,38.1
2017-01-23T05:18:13.450Z,38.39
2017-01-23T05:19:22.144Z,38.2
2017-01-23T05:20:30.830Z,38.28
2017-01-23T05:21:39.550Z,38.18
2017-01-23T05:22:48.628Z,38.18
2017-01-23T05:23:57.317Z,38.2
2017-01-23T05:25:06.416Z,38.2
2017-01-23T05:26:15.889Z,38.18
2017-01-23T05:27:24.988Z,38.18
2017-01-23T05:28:34.509Z,38.09
2017-01-23T05:29:43.591Z,38.2
2017-01-23T05:30:53.058Z,38.1
2017-01-23T05:32:02.339Z,38.29
2017-01-23T05:33:11.829Z,38.2
2017-01-23T05:34:20.914Z,38.29
2017-01-23T05:35:30.010Z,38.29
2017-01-23T05:36:39.502Z,38.1
2017-01-23T05:37:48.191Z,38.39
2017-01-23T05:38:56.923Z,38.2
2017-01-23T05:40:06.789Z,37.72
2017-01-23T05:41:15.858Z,37.82
2017-01-23T05:42:25.710Z,37.62
2017-01-23T05:43:34.391Z,37.62
2017-01-23T05:44:44.252Z,37.53
2017-01-23T05:45:53.495Z,37.62
2017-01-23T05:47:02.977Z,37.55
2017-01-23T05:48:12.094Z,37.16
2017-01-23T05:49:21.578Z,37.07
2017-01-23T05:50:30.690Z,36.88
2017-01-23T05:51:39.393Z,37.07
2017-01-23T05:52:48.876Z,37.07
2017-01-23T05:53:57.567Z,36.8
2017-01-23T05:55:06.660Z,36.6
2017-01-23T05:56:15.757Z,36.7
2017-01-23T05:57:25.252Z,36.41
2017-01-23T05:58:34.390Z,36.6
2017-01-23T05:59:43.510Z,36.32
2017-01-23T06:00:52.625Z,36.32
2017-01-23T06:02:02.123Z,36.15
2017-01-23T06:03:11.658Z,36.15
2017-01-23T06:04:20.358Z,36.05
2017-01-23T06:05:29.447Z,35.95
2017-01-23T06:06:38.152Z,35.85
2017-01-23T06:07:46.967Z,35.95
2017-01-23T06:08:56.440Z,35.66
2017-01-23T06:10:05.924Z,35.66
2017-01-23T06:11:15.844Z,35.66
2017-01-23T06:12:24.925Z,35.38
2017-01-23T06:13:34.031Z,35.28
2017-01-23T06:14:43.545Z,35.38
2017-01-23T06:15:52.697Z,35.3
2017-01-23T06:17:01.795Z,35.3
2017-01-23T06:18:11.694Z,35.2
2017-01-23T06:19:21.196Z,35.2
2017-01-23T06:20:30.350Z,35.1
2017-01-23T06:21:39.497Z,35
2017-01-23T06:22:49.011Z,34.83
2017-01-23T06:23:57.731Z,34.92
2017-01-23T06:25:07.233Z,35.02
2017-01-23T06:26:16.374Z,35.02
2017-01-23T06:27:25.103Z,35.12
2017-01-23T06:28:34.732Z,35.12
2017-01-23T06:29:43.414Z,35.22
2017-01-23T06:30:52.536Z,34.64
2017-01-23T06:32:01.676Z,34.54
2017-01-23T06:33:10.387Z,34.64
2017-01-23T06:34:19.524Z,34.54
2017-01-23T06:35:28.250Z,34.45
2017-01-23T06:36:37.400Z,34.35
2017-01-23T06:37:46.135Z,34.27
2017-01-23T06:38:55.393Z,34.37
2017-01-23T06:40:04.507Z,34.37
2017-01-23T06:41:13.603Z,34.37
2017-01-23T06:42:22.309Z,34.27
2017-01-23T06:43:31.023Z,34.17
2017-01-23T06:44:40.129Z,34.56
2017-01-23T06:45:49.217Z,34.17
2017-01-23T06:46:58.314Z,34.37
2017-01-23T06:48:07.828Z,34.17
2017-01-23T06:49:17.312Z,35.14
2017-01-23T06:50:27.179Z,34.37
2017-01-23T06:51:36.267Z,34.46
2017-01-23T06:52:45.423Z,34.46
2017-01-23T06:53:54.561Z,34.37
2017-01-23T06:55:03.265Z,34.46
2017-01-23T06:56:12.772Z,34.37
2017-01-23T06:57:21.466Z,34.46
2017-01-23T06:58:30.941Z,34.56
2017-01-23T06:59:40.016Z,34.75
2017-01-23T07:00:49.480Z,34.75
2017-01-23T07:01:58.985Z,34.94
2017-01-23T07:03:08.455Z,35.14
2017-01-23T07:04:17.617Z,35.14
2017-01-23T07:05:26.693Z,34.94
2017-01-23T07:06:35.781Z,34.94
2017-01-23T07:07:44.500Z,35.14
2017-01-23T07:08:53.198Z,35.14
2017-01-23T07:10:01.899Z,35.24
2017-01-23T07:11:10.621Z,35.14
2017-01-23T07:12:19.709Z,35.24
2017-01-23T07:13:28.409Z,35.24
2017-01-23T07:14:37.507Z,35.41
2017-01-23T07:15:46.206Z,35.41
2017-01-23T07:16:55.324Z,35.42
2017-01-23T07:18:04.417Z,35.5
2017-01-23T07:19:13.888Z,35.79
2017-01-23T07:20:22.599Z,35.7
2017-01-23T07:21:32.487Z,35.7
2017-01-23T07:22:41.628Z,35.99
2017-01-23T07:23:50.717Z,35.99
2017-01-23T07:24:59.883Z,36.08
2017-01-23T07:26:09.061Z,36.18
2017-01-23T07:27:18.162Z,36.27
2017-01-23T07:28:26.912Z,36.37
2017-01-23T07:29:36.401Z,36.27
2017-01-23T07:30:45.118Z,36.56
2017-01-23T07:31:54.606Z,36.56
2017-01-23T07:33:04.091Z,36.54
2017-01-23T07:34:13.197Z,36.83
2017-01-23T07:35:22.667Z,36.74
2017-01-23T07:36:31.365Z,36.74
2017-01-23T07:37:40.146Z,36.93
2017-01-23T07:38:49.626Z,36.83
2017-01-23T07:39:59.900Z,37.12
2017-01-23T07:41:08.613Z,37.02
2017-01-23T07:42:17.713Z,37.12
2017-01-23T07:43:26.794Z,36.83
2017-01-23T07:44:35.515Z,37.02
2017-01-23T07:45:44.238Z,37.12
2017-01-23T07:46:52.981Z,37.12
2017-01-23T07:48:02.457Z,37.12
2017-01-23T07:49:11.970Z,37.2
2017-01-23T07:50:20.685Z,37.2
2017-01-23T07:51:29.418Z,37.39
2017-01-23T07:52:38.896Z,37.49
2017-01-23T07:53:47.612Z,37.39
2017-01-23T07:54:56.737Z,37.49
2017-01-23T07:56:05.905Z,37.49
2017-01-23T07:57:15.003Z,37.68
2017-01-23T07:58:24.133Z,37.68
2017-01-23T07:59:33.301Z,37.77
2017-01-23T08:00:42.411Z,37.68
2017-01-23T08:01:51.971Z,37.77
2017-01-23T08:03:00.744Z,37.68
2017-01-23T08:04:09.854Z,37.59
2017-01-23T08:05:18.972Z,37.68
2017-01-23T08:06:28.458Z,37.49
2017-01-23T08:07:37.961Z,37.68
2017-01-23T08:08:46.670Z,37.49
2017-01-23T08:09:55.413Z,37.87
2017-01-23T08:11:04.158Z,37.68
2017-01-23T08:12:13.700Z,37.39
2017-01-23T08:13:23.196Z,37.49
2017-01-23T08:14:32.288Z,37.59
2017-01-23T08:15:41.406Z,37.49
2017-01-23T08:16:50.133Z,37.85
2017-01-23T08:17:59.223Z,37.76
2017-01-23T08:19:08.335Z,37.59
2017-01-23T08:20:17.412Z,37.59
2017-01-23T08:21:26.104Z,37.49
2017-01-23T08:22:34.795Z,37.66
2017-01-23T08:23:44.322Z,37.76
2017-01-23T08:24:53.044Z,37.85
2017-01-23T08:26:01.734Z,37.85
2017-01-23T08:27:10.816Z,38.14
2017-01-23T08:28:19.521Z,37.85
2017-01-23T08:29:28.657Z,37.95
2017-01-23T08:30:37.752Z,37.95
2017-01-23T08:31:46.443Z,37.95
2017-01-23T08:32:55.554Z,38.34
2017-01-23T08:34:04.640Z,37.95
2017-01-23T08:35:13.736Z,38.53
2017-01-23T08:36:23.216Z,38.14
2017-01-23T08:37:31.943Z,38.14
2017-01-23T08:38:40.650Z,38.24
2017-01-23T08:39:50.532Z,38.14
2017-01-23T08:40:59.246Z,38.34
2017-01-23T08:42:08.378Z,38.34
2017-01-23T08:43:17.892Z,38.43
2017-01-23T08:44:26.600Z,38.24
2017-01-23T08:45:35.710Z,38.34
2017-01-23T08:46:44.418Z,38.34
2017-01-23T08:47:53.921Z,38.24
2017-01-23T08:49:02.648Z,38.14
2017-01-23T08:50:12.510Z,38.24
2017-01-23T08:51:21.585Z,38.34
2017-01-23T08:52:31.057Z,38.14
2017-01-23T08:53:40.154Z,38.14
2017-01-23T08:54:48.847Z,38.14
2017-01-23T08:55:57.567Z,38.04
2017-01-23T08:57:06.720Z,38.04
2017-01-23T08:58:15.815Z,38.14
2017-01-23T08:59:26.081Z,38.14
2017-01-23T09:00:35.974Z,38.14
2017-01-23T09:01:44.703Z,38.14
2017-01-23T09:02:53.823Z,38.04
2017-01-23T09:04:02.921Z,38.24
2017-01-23T09:05:12.429Z,38.14
2017-01-23T09:06:21.557Z,38.24
2017-01-23T09:07:31.043Z,38.24
2017-01-23T09:08:40.142Z,38.22
2017-01-23T09:09:49.209Z,38.14
2017-01-23T09:10:58.055Z,38.12
2017-01-23T09:12:06.795Z,38.14
2017-01-23T09:13:16.267Z,37.95
2017-01-23T09:14:24.982Z,37.95
2017-01-23T09:15:33.691Z,38.14
2017-01-23T09:16:42.802Z,38.02
2017-01-23T09:17:51.902Z,38.14
2017-01-23T09:19:00.999Z,38.14
2017-01-23T09:20:09.716Z,38.04
2017-01-23T09:21:18.406Z,38.04
2017-01-23T09:22:27.503Z,38.02
2017-01-23T09:23:36.590Z,38.02
2017-01-23T09:24:45.295Z,38.04
2017-01-23T09:25:54.428Z,38.14
2017-01-23T09:27:03.574Z,38.14
2017-01-23T09:28:12.286Z,38.02
2017-01-23T09:29:21.376Z,38.14
2017-01-23T09:30:31.296Z,38.14
2017-01-23T09:31:40.015Z,38.22
2017-01-23T09:32:49.099Z,38.24
2017-01-23T09:33:58.569Z,38.14
2017-01-23T09:35:08.075Z,38.24
2017-01-23T09:36:17.154Z,38.04
2017-01-23T09:37:25.871Z,38.14
2017-01-23T09:38:35.340Z,38.12
2017-01-23T09:39:44.449Z,38.12
2017-01-23T09:40:53.936Z,38.14
2017-01-23T09:42:03.397Z,38.14
2017-01-23T09:43:12.889Z,38.24
2017-01-23T09:44:21.582Z,38.14
2017-01-23T09:45:30.297Z,38.14
2017-01-23T09:46:39.076Z,38.14
2017-01-23T09:47:48.181Z,38.12
2017-01-23T09:48:56.938Z,38.04
2017-01-23T09:50:06.419Z,38.12
2017-01-23T09:51:15.984Z,38.12
2017-01-23T09:52:25.071Z,38.12
2017-01-23T09:53:34.149Z,38.02
2017-01-23T09:54:43.239Z,38.14
2017-01-23T09:55:51.949Z,38.02
2017-01-23T09:57:00.657Z,38.14
2017-01-23T09:58:09.750Z,38.14
2017-01-23T09:59:18.844Z,38.14
2017-01-23T10:00:27.921Z,38.12
2017-01-23T10:01:37.014Z,38.24
2017-01-23T10:02:46.142Z,38.14
2017-01-23T10:03:55.246Z,38.22
2017-01-23T10:05:04.377Z,38.02
2017-01-23T10:06:13.461Z,38.24
2017-01-23T10:07:22.164Z,38.24
2017-01-23T10:08:32.049Z,38.12
2017-01-23T10:09:41.532Z,38.12
2017-01-23T10:10:50.693Z,38.02
2017-01-23T10:11:59.785Z,38.32
2017-01-23T10:13:08.475Z,38.12
2017-01-23T10:14:17.185Z,37.95
2017-01-23T10:15:26.680Z,38.22
2017-01-23T10:16:36.535Z,38.12
2017-01-23T10:17:45.649Z,38.24
2017-01-23T10:18:54.339Z,38.12
2017-01-23T10:20:03.862Z,38.22
2017-01-23T10:21:12.560Z,37.93
2017-01-23T10:22:21.640Z,38.32
2017-01-23T10:23:30.735Z,38.02
2017-01-23T10:24:39.839Z,37.93
2017-01-23T10:25:48.549Z,38.22
2017-01-23T10:26:57.667Z,38.02
2017-01-23T10:28:07.155Z,38.41
2017-01-23T10:29:17.019Z,38.51
2017-01-23T10:30:25.751Z,38.12
2017-01-23T10:31:34.861Z,38.12
2017-01-23T10:32:43.979Z,38.02
2017-01-23T10:33:53.474Z,38.51
2017-01-23T10:35:02.199Z,38.32
2017-01-23T10:36:11.669Z,38.41
2017-01-23T10:37:20.777Z,38.32
2017-01-23T10:38:30.258Z,38.41
2017-01-23T10:39:39.379Z,38.22
2017-01-23T10:40:48.492Z,38.41
2017-01-23T10:41:57.210Z,38.51
2017-01-23T10:43:06.717Z,38.51
2017-01-23T10:44:16.579Z,38.22
2017-01-23T10:45:25.677Z,38.41
2017-01-23T10:46:34.763Z,38.32
2017-01-23T10:47:44.276Z,38.41
2017-01-23T10:48:52.992Z,38.41
2017-01-23T10:50:01.707Z,38.12
2017-01-23T10:51:10.855Z,38.51
2017-01-23T10:52:19.962Z,38.32
2017-01-23T10:53:29.489Z,38.41
2017-01-23T10:54:38.975Z,38.51
2017-01-23T10:55:48.081Z,38.32
2017-01-23T10:56:56.794Z,38.51
2017-01-23T10:58:05.507Z,38.51
2017-01-23T10:59:14.221Z,38.32
2017-01-23T11:00:22.927Z,38.51
2017-01-23T11:01:32.393Z,38.51
2017-01-23T11:02:41.867Z,38.22
2017-01-23T11:03:50.605Z,38.51
2017-01-23T11:04:59.334Z,38.22
2017-01-23T11:06:08.062Z,38.32
2017-01-23T11:07:17.150Z,38.41
2017-01-23T11:08:26.238Z,38.41
2017-01-23T11:09:35.341Z,38.32
2017-01-23T11:10:44.494Z,38.41
2017-01-23T11:11:53.239Z,38.41
2017-01-23T11:13:02.726Z,38.51
2017-01-23T11:14:13.024Z,38.41
2017-01-23T11:15:22.122Z,38.51
2017-01-23T11:16:31.641Z,38.41
2017-01-23T11:17:40.773Z,38.32
2017-01-23T11:18:50.279Z,38.32
2017-01-23T11:19:59.380Z,38.41
2017-01-23T11:21:08.084Z,38.32
2017-01-23T11:22:17.168Z,38.51
2017-01-23T11:23:26.646Z,38.32
2017-01-23T11:24:35.734Z,38.41
2017-01-23T11:25:44.820Z,38.41
2017-01-23T11:26:53.512Z,38.41
2017-01-23T11:28:02.626Z,38.32
2017-01-23T11:29:11.331Z,38.32
2017-01-23T11:30:20.417Z,38.32
2017-01-23T11:31:29.127Z,38.51
2017-01-23T11:32:38.245Z,38.41
2017-01-23T11:33:47.748Z,38.32
2017-01-23T11:34:56.816Z,38.32
2017-01-23T11:36:05.508Z,38.51
2017-01-23T11:37:14.632Z,38.32
2017-01-23T11:38:23.720Z,38.32
2017-01-23T11:39:32.417Z,38.32
2017-01-23T11:40:41.156Z,38.41
2017-01-23T11:41:50.268Z,38.51
2017-01-23T11:42:59.344Z,38.41
2017-01-23T11:44:08.506Z,38.41
2017-01-23T11:45:17.600Z,38.51
2017-01-23T11:46:26.315Z,38.41
2017-01-23T11:47:35.446Z,38.41
2017-01-23T11:48:44.558Z,38.32
2017-01-23T11:49:54.086Z,38.41
2017-01-23T11:51:03.223Z,38.12
2017-01-23T11:52:12.319Z,38.41
2017-01-23T11:53:22.169Z,38.6
2017-01-23T11:54:30.875Z,38.51
2017-01-23T11:55:39.953Z,38.41
2017-01-23T11:56:49.049Z,38.51
2017-01-23T11:57:58.139Z,38.41
2017-01-23T11:59:07.282Z,38.41
2017-01-23T12:00:16.765Z,38.41
2017-01-23T12:01:25.872Z,38.41
2017-01-23T12:02:34.565Z,38.41
2017-01-23T12:03:43.700Z,38.41
2017-01-23T12:04:52.804Z,38.41
2017-01-23T12:06:01.507Z,38.51
2017-01-23T12:07:10.608Z,38.41
2017-01-23T12:08:20.137Z,38.51
2017-01-23T12:09:29.262Z,38.41
2017-01-23T12:10:38.739Z,38.32
2017-01-23T12:11:47.818Z,38.32
2017-01-23T12:12:56.905Z,38.32
2017-01-23T12:14:06.425Z,38.41
2017-01-23T12:15:15.898Z,38.32
2017-01-23T12:16:25.395Z,38.51
2017-01-23T12:17:34.931Z,38.32
2017-01-23T12:18:43.634Z,38.51
2017-01-23T12:19:52.350Z,38.41
2017-01-23T12:21:01.087Z,38.32
2017-01-23T12:22:10.170Z,38.41
2017-01-23T12:23:19.251Z,38.32
2017-01-23T12:24:27.981Z,38.41
2017-01-23T12:25:37.113Z,38.41
2017-01-23T12:26:46.203Z,38.51
2017-01-23T12:27:55.301Z,38.51
2017-01-23T12:29:04.410Z,38.51
2017-01-23T12:30:13.119Z,38.41
2017-01-23T12:31:22.628Z,38.32
2017-01-23T12:32:32.522Z,38.51
2017-01-23T12:33:41.642Z,38.6
2017-01-23T12:34:50.752Z,38.51
2017-01-23T12:35:59.475Z,38.51
2017-01-23T12:37:08.598Z,38.41
2017-01-23T12:38:18.074Z,38.51
2017-01-23T12:39:27.931Z,38.51
2017-01-23T12:40:36.627Z,38.32
2017-01-23T12:41:45.712Z,38.51
2017-01-23T12:42:55.576Z,38.41
2017-01-23T12:44:05.051Z,38.41
2017-01-23T12:45:14.168Z,38.41
2017-01-23T12:46:22.863Z,38.51
2017-01-23T12:47:31.938Z,38.6
2017-01-23T12:48:41.404Z,38.51
2017-01-23T12:49:50.515Z,38.41
2017-01-23T12:51:00.428Z,38.41
2017-01-23T12:52:09.911Z,38.41
2017-01-23T12:53:18.597Z,38.41
2017-01-23T12:54:27.692Z,38.41
2017-01-23T12:55:37.563Z,38.51
2017-01-23T12:56:47.439Z,38.6
2017-01-23T12:57:56.939Z,38.51
2017-01-23T12:59:06.025Z,38.79
2017-01-23T13:00:15.098Z,38.6
2017-01-23T13:01:24.177Z,38.79
2017-01-23T13:02:33.648Z,38.7
2017-01-23T13:03:42.377Z,38.6
2017-01-23T13:04:51.476Z,38.6
2017-01-23T13:06:01.508Z,38.79
2017-01-23T13:07:11.005Z,38.7
2017-01-23T13:08:20.114Z,38.79
2017-01-23T13:09:29.765Z,38.7
2017-01-23T13:10:39.674Z,38.7
2017-01-23T13:11:48.381Z,38.79
2017-01-23T13:12:57.843Z,38.79
2017-01-23T13:14:06.540Z,38.79
2017-01-23T13:15:16.056Z,38.79
2017-01-23T13:16:25.153Z,39.28
2017-01-23T13:17:34.267Z,39.18
2017-01-23T13:18:43.803Z,39.28
2017-01-23T13:19:52.892Z,38.99
2017-01-23T13:21:01.975Z,38.99
2017-01-23T13:22:11.470Z,38.99
2017-01-23T13:23:20.602Z,39.28
2017-01-23T13:24:29.725Z,39.28
2017-01-23T13:25:38.842Z,39.08
2017-01-23T13:26:48.344Z,39.18
2017-01-23T13:27:57.044Z,39.08
2017-01-23T13:29:05.733Z,39.28
2017-01-23T13:30:14.443Z,39.18
2017-01-23T13:31:23.526Z,39.18
2017-01-23T13:32:32.704Z,39.08
2017-01-23T13:33:41.833Z,39.18
2017-01-23T13:34:51.292Z,39.18
2017-01-23T13:35:59.980Z,39.08
2017-01-23T13:37:08.692Z,39.18
2017-01-23T13:38:17.402Z,38.99
2017-01-23T13:39:26.527Z,38.89
2017-01-23T13:40:36.436Z,38.99
2017-01-23T13:41:46.712Z,39.08
2017-01-23T13:42:55.418Z,38.89
2017-01-23T13:44:04.140Z,39.08
2017-01-23T13:45:14.008Z,38.99
2017-01-23T13:46:23.094Z,38.79
2017-01-23T13:47:32.176Z,39.08
2017-01-23T13:48:41.289Z,39.08
2017-01-23T13:49:50.791Z,38.99
2017-01-23T13:50:59.884Z,39.08
2017-01-23T13:52:08.584Z,39.08
2017-01-23T13:53:17.690Z,39.08
2017-01-23T13:54:26.797Z,38.89
2017-01-23T13:55:36.286Z,38.89
2017-01-23T13:56:45.774Z,38.89
2017-01-23T13:57:55.250Z,39.08
2017-01-23T13:59:04.366Z,38.79
2017-01-23T14:00:13.107Z,39.08
2017-01-23T14:01:22.204Z,38.99
2017-01-23T14:02:31.308Z,39.08
2017-01-23T14:03:40.394Z,39.18
2017-01-23T14:04:49.912Z,38.99
2017-01-23T14:05:59.015Z,39.08
2017-01-23T14:07:08.118Z,39.28
2017-01-23T14:08:16.863Z,39.18
2017-01-23T14:09:25.949Z,39.28
2017-01-23T14:10:34.653Z,39.18
2017-01-23T14:11:43.808Z,39.18
2017-01-23T14:12:53.404Z,39.28
2017-01-23T14:14:02.892Z,39.28
2017-01-23T14:15:12.013Z,39.18
2017-01-23T14:16:21.506Z,39.28
2017-01-23T14:17:31.422Z,39.28
2017-01-23T14:18:40.170Z,39.28
2017-01-23T14:19:49.253Z,39.28
2017-01-23T14:20:58.354Z,39.28
2017-01-23T14:22:07.835Z,39.16
2017-01-23T14:23:16.543Z,39.28
2017-01-23T14:24:25.684Z,39.28
2017-01-23T14:25:35.193Z,39.26
2017-01-23T14:26:44.696Z,39.18
2017-01-23T14:27:53.801Z,39.16
2017-01-23T14:29:02.889Z,39.35
2017-01-23T14:30:11.981Z,39.26
2017-01-23T14:31:20.691Z,39.08
2017-01-23T14:32:29.841Z,39.16
2017-01-23T14:33:38.574Z,39.06
2017-01-23T14:34:47.669Z,39.18
2017-01-23T14:35:57.920Z,39.16
2017-01-23T14:37:06.628Z,39.06
2017-01-23T14:38:16.131Z,39.06
2017-01-23T14:39:24.853Z,39.06
2017-01-23T14:40:33.935Z,39.06
2017-01-23T14:41:43.052Z,39.06
2017-01-23T14:42:52.141Z,39.06
2017-01-23T14:44:00.875Z,39.06
2017-01-23T14:45:10.386Z,39.06
2017-01-23T14:46:19.471Z,39.06
2017-01-23T14:47:28.566Z,38.68
2017-01-23T14:48:37.652Z,39.16
2017-01-23T14:49:46.351Z,38.96
2017-01-23T14:50:55.437Z,38.78
2017-01-23T14:52:04.949Z,38.78
2017-01-23T14:53:14.078Z,39.16